sensor_id;sensor_type;location;lat;lon;timestamp;P1;durP1;ratioP1;P2;durP2;ratioP2
55292;SDS011;41157;53.560;10.098;2023-07-20T00:01:26;3.40;;;1.50;;
55292;SDS011;41157;53.560;10.098;2023-07-20T00:03:53;3.13;;;1.50;;
55292;SDS011;41157;53.560;10.098;2023-07-20T00:06:20;1.43;;;1.30;;
55292;SDS011;41157;53.560;10.098;2023-07-20T00:08:48;1.73;;;1.50;;
55292;SDS011;41157;53.560;10.098;2023-07-20T00:11:15;2.10;;;1.30;;
55292;SDS011;41157;53.560;10.098;2023-07-20T00:13:44;2.97;;;1.50;;
55292;SDS011;41157;53.560;10.098;2023-07-20T00:16:11;3.47;;;1.63;;
55292;SDS011;41157;53.560;10.098;2023-07-20T00:18:38;1.40;;;1.23;;
55292;SDS011;41157;53.560;10.098;2023-07-20T00:21:05;2.67;;;1.40;;
55292;SDS011;41157;53.560;10.098;2023-07-20T00:23:32;4.27;;;1.30;;
55292;SDS011;41157;53.560;10.098;2023-07-20T00:25:59;1.57;;;1.47;;
55292;SDS011;41157;53.560;10.098;2023-07-20T00:28:26;1.40;;;1.30;;
55292;SDS011;41157;53.560;10.098;2023-07-20T00:30:54;2.93;;;1.53;;
55292;SDS011;41157;53.560;10.098;2023-07-20T00:33:21;2.87;;;1.57;;
55292;SDS011;41157;53.560;10.098;2023-07-20T00:35:48;1.27;;;1.20;;
55292;SDS011;41157;53.560;10.098;2023-07-20T00:38:15;1.80;;;1.50;;
55292;SDS011;41157;53.560;10.098;2023-07-20T00:40:42;1.30;;;1.20;;
55292;SDS011;41157;53.560;10.098;2023-07-20T00:43:09;1.13;;;1.00;;
55292;SDS011;41157;53.560;10.098;2023-07-20T00:45:36;3.77;;;1.50;;
55292;SDS011;41157;53.560;10.098;2023-07-20T00:48:05;2.53;;;1.53;;
55292;SDS011;41157;53.560;10.098;2023-07-20T00:50:33;2.30;;;1.40;;
55292;SDS011;41157;53.560;10.098;2023-07-20T00:53:00;2.00;;;1.23;;
55292;SDS011;41157;53.560;10.098;2023-07-20T00:55:30;1.90;;;1.40;;
55292;SDS011;41157;53.560;10.098;2023-07-20T00:57:57;1.73;;;1.30;;
55292;SDS011;41157;53.560;10.098;2023-07-20T01:00:24;4.13;;;1.40;;
55292;SDS011;41157;53.560;10.098;2023-07-20T01:02:51;2.83;;;1.40;;
55292;SDS011;41157;53.560;10.098;2023-07-20T01:05:20;2.63;;;1.50;;
55292;SDS011;41157;53.560;10.098;2023-07-20T01:07:49;1.57;;;1.47;;
55292;SDS011;41157;53.560;10.098;2023-07-20T01:10:19;2.97;;;1.57;;
55292;SDS011;41157;53.560;10.098;2023-07-20T01:12:48;1.53;;;1.43;;
55292;SDS011;41157;53.560;10.098;2023-07-20T01:15:18;2.87;;;1.40;;
55292;SDS011;41157;53.560;10.098;2023-07-20T01:17:45;5.20;;;1.70;;
55292;SDS011;41157;53.560;10.098;2023-07-20T01:20:13;1.40;;;1.30;;
55292;SDS011;41157;53.560;10.098;2023-07-20T01:22:51;2.67;;;1.40;;
55292;SDS011;41157;53.560;10.098;2023-07-20T01:25:24;1.70;;;1.60;;
55292;SDS011;41157;53.560;10.098;2023-07-20T01:28:01;1.80;;;1.40;;
55292;SDS011;41157;53.560;10.098;2023-07-20T01:30:43;2.30;;;1.50;;
55292;SDS011;41157;53.560;10.098;2023-07-20T01:33:15;1.90;;;1.60;;
55292;SDS011;41157;53.560;10.098;2023-07-20T01:35:45;3.30;;;1.57;;
55292;SDS011;41157;53.560;10.098;2023-07-20T01:38:13;1.83;;;1.73;;
55292;SDS011;41157;53.560;10.098;2023-07-20T01:40:40;1.57;;;1.47;;
55292;SDS011;41157;53.560;10.098;2023-07-20T01:43:07;2.43;;;1.70;;
55292;SDS011;41157;53.560;10.098;2023-07-20T01:45:34;2.73;;;1.87;;
55292;SDS011;41157;53.560;10.098;2023-07-20T01:48:02;2.27;;;1.77;;
55292;SDS011;41157;53.560;10.098;2023-07-20T01:50:30;1.97;;;1.87;;
55292;SDS011;41157;53.560;10.098;2023-07-20T01:52:59;1.90;;;1.80;;
55292;SDS011;41157;53.560;10.098;2023-07-20T01:55:26;3.73;;;1.60;;
55292;SDS011;41157;53.560;10.098;2023-07-20T01:57:54;2.00;;;1.80;;
55292;SDS011;41157;53.560;10.098;2023-07-20T02:00:21;2.50;;;1.73;;
55292;SDS011;41157;53.560;10.098;2023-07-20T02:02:49;2.63;;;2.23;;
55292;SDS011;41157;53.560;10.098;2023-07-20T02:05:16;2.10;;;1.80;;
55292;SDS011;41157;53.560;10.098;2023-07-20T02:07:45;4.03;;;2.23;;
55292;SDS011;41157;53.560;10.098;2023-07-20T02:10:12;2.97;;;2.00;;
55292;SDS011;41157;53.560;10.098;2023-07-20T02:12:39;2.63;;;2.13;;
55292;SDS011;41157;53.560;10.098;2023-07-20T02:15:07;1.70;;;1.60;;
55292;SDS011;41157;53.560;10.098;2023-07-20T02:17:34;2.43;;;2.20;;
55292;SDS011;41157;53.560;10.098;2023-07-20T02:20:02;3.77;;;2.10;;
55292;SDS011;41157;53.560;10.098;2023-07-20T02:22:29;2.80;;;2.30;;
55292;SDS011;41157;53.560;10.098;2023-07-20T02:24:57;2.57;;;2.27;;
55292;SDS011;41157;53.560;10.098;2023-07-20T02:27:24;2.10;;;1.90;;
55292;SDS011;41157;53.560;10.098;2023-07-20T02:29:51;3.80;;;1.90;;
55292;SDS011;41157;53.560;10.098;2023-07-20T02:32:18;3.10;;;2.13;;
55292;SDS011;41157;53.560;10.098;2023-07-20T02:34:45;2.13;;;1.83;;
55292;SDS011;41157;53.560;10.098;2023-07-20T02:37:12;1.80;;;1.70;;
55292;SDS011;41157;53.560;10.098;2023-07-20T02:39:39;2.17;;;2.00;;
55292;SDS011;41157;53.560;10.098;2023-07-20T02:42:08;2.03;;;1.83;;
55292;SDS011;41157;53.560;10.098;2023-07-20T02:44:35;2.90;;;1.77;;
55292;SDS011;41157;53.560;10.098;2023-07-20T02:47:02;3.47;;;2.20;;
55292;SDS011;41157;53.560;10.098;2023-07-20T02:49:29;2.20;;;2.00;;
55292;SDS011;41157;53.560;10.098;2023-07-20T02:51:56;2.07;;;1.87;;
55292;SDS011;41157;53.560;10.098;2023-07-20T02:54:23;2.07;;;1.80;;
55292;SDS011;41157;53.560;10.098;2023-07-20T02:56:50;2.27;;;2.07;;
55292;SDS011;41157;53.560;10.098;2023-07-20T02:59:18;2.63;;;2.10;;
55292;SDS011;41157;53.560;10.098;2023-07-20T03:01:45;2.50;;;1.90;;
55292;SDS011;41157;53.560;10.098;2023-07-20T03:04:13;2.37;;;2.00;;
55292;SDS011;41157;53.560;10.098;2023-07-20T03:06:41;2.27;;;2.07;;
55292;SDS011;41157;53.560;10.098;2023-07-20T03:09:08;5.13;;;2.10;;
55292;SDS011;41157;53.560;10.098;2023-07-20T03:11:35;2.10;;;1.90;;
55292;SDS011;41157;53.560;10.098;2023-07-20T03:14:02;3.47;;;2.37;;
55292;SDS011;41157;53.560;10.098;2023-07-20T03:16:31;2.13;;;1.93;;
55292;SDS011;41157;53.560;10.098;2023-07-20T03:18:58;2.10;;;2.00;;
55292;SDS011;41157;53.560;10.098;2023-07-20T03:21:25;2.30;;;2.10;;
55292;SDS011;41157;53.560;10.098;2023-07-20T03:23:52;1.90;;;1.80;;
55292;SDS011;41157;53.560;10.098;2023-07-20T03:26:21;2.67;;;2.23;;
55292;SDS011;41157;53.560;10.098;2023-07-20T03:28:50;3.93;;;2.13;;
55292;SDS011;41157;53.560;10.098;2023-07-20T03:31:17;2.30;;;2.10;;
55292;SDS011;41157;53.560;10.098;2023-07-20T03:33:45;3.17;;;2.20;;
55292;SDS011;41157;53.560;10.098;2023-07-20T03:36:12;3.33;;;2.20;;
55292;SDS011;41157;53.560;10.098;2023-07-20T03:38:39;2.50;;;2.20;;
55292;SDS011;41157;53.560;10.098;2023-07-20T03:41:06;2.50;;;2.17;;
55292;SDS011;41157;53.560;10.098;2023-07-20T03:43:34;2.43;;;2.20;;
55292;SDS011;41157;53.560;10.098;2023-07-20T03:46:01;1.93;;;1.83;;
55292;SDS011;41157;53.560;10.098;2023-07-20T03:48:31;2.47;;;2.27;;
55292;SDS011;41157;53.560;10.098;2023-07-20T03:51:00;2.60;;;1.80;;
55292;SDS011;41157;53.560;10.098;2023-07-20T03:53:27;2.60;;;2.00;;
55292;SDS011;41157;53.560;10.098;2023-07-20T03:55:54;4.27;;;1.80;;
55292;SDS011;41157;53.560;10.098;2023-07-20T03:58:21;1.80;;;1.70;;
55292;SDS011;41157;53.560;10.098;2023-07-20T04:00:48;9.10;;;2.20;;
55292;SDS011;41157;53.560;10.098;2023-07-20T04:03:16;2.60;;;1.90;;
55292;SDS011;41157;53.560;10.098;2023-07-20T04:05:43;2.10;;;1.87;;
55292;SDS011;41157;53.560;10.098;2023-07-20T04:08:12;2.33;;;1.83;;
55292;SDS011;41157;53.560;10.098;2023-07-20T04:10:39;2.03;;;1.57;;
55292;SDS011;41157;53.560;10.098;2023-07-20T04:13:10;4.33;;;1.73;;
55292;SDS011;41157;53.560;10.098;2023-07-20T04:15:37;2.10;;;1.80;;
55292;SDS011;41157;53.560;10.098;2023-07-20T04:18:04;2.67;;;1.90;;
55292;SDS011;41157;53.560;10.098;2023-07-20T04:20:31;2.10;;;2.00;;
55292;SDS011;41157;53.560;10.098;2023-07-20T04:22:58;3.70;;;1.87;;
55292;SDS011;41157;53.560;10.098;2023-07-20T04:28:16;2.10;;;1.90;;
55292;SDS011;41157;53.560;10.098;2023-07-20T04:30:43;2.50;;;1.83;;
55292;SDS011;41157;53.560;10.098;2023-07-20T04:33:10;2.03;;;1.93;;
55292;SDS011;41157;53.560;10.098;2023-07-20T04:35:47;2.27;;;2.03;;
55292;SDS011;41157;53.560;10.098;2023-07-20T04:38:14;2.20;;;2.07;;
55292;SDS011;41157;53.560;10.098;2023-07-20T04:40:42;2.90;;;2.17;;
55292;SDS011;41157;53.560;10.098;2023-07-20T04:43:09;2.30;;;2.10;;
55292;SDS011;41157;53.560;10.098;2023-07-20T04:45:38;2.13;;;2.00;;
55292;SDS011;41157;53.560;10.098;2023-07-20T04:48:07;3.20;;;2.17;;
55292;SDS011;41157;53.560;10.098;2023-07-20T04:50:36;3.30;;;2.53;;
55292;SDS011;41157;53.560;10.098;2023-07-20T04:53:03;2.20;;;2.00;;
55292;SDS011;41157;53.560;10.098;2023-07-20T04:55:30;2.87;;;2.30;;
55292;SDS011;41157;53.560;10.098;2023-07-20T04:57:58;2.40;;;2.20;;
55292;SDS011;41157;53.560;10.098;2023-07-20T05:00:26;2.30;;;2.10;;
55292;SDS011;41157;53.560;10.098;2023-07-20T05:02:54;1.80;;;1.70;;
55292;SDS011;41157;53.560;10.098;2023-07-20T05:05:22;2.23;;;2.03;;
55292;SDS011;41157;53.560;10.098;2023-07-20T05:07:53;2.00;;;1.90;;
55292;SDS011;41157;53.560;10.098;2023-07-20T05:10:20;3.07;;;2.00;;
55292;SDS011;41157;53.560;10.098;2023-07-20T05:12:47;2.63;;;1.77;;
55292;SDS011;41157;53.560;10.098;2023-07-20T05:15:15;1.80;;;1.70;;
55292;SDS011;41157;53.560;10.098;2023-07-20T05:17:42;1.77;;;1.67;;
55292;SDS011;41157;53.560;10.098;2023-07-20T05:20:13;2.10;;;1.87;;
55292;SDS011;41157;53.560;10.098;2023-07-20T05:22:40;2.97;;;1.77;;
55292;SDS011;41157;53.560;10.098;2023-07-20T05:25:08;7.60;;;2.47;;
55292;SDS011;41157;53.560;10.098;2023-07-20T05:27:36;2.23;;;1.97;;
55292;SDS011;41157;53.560;10.098;2023-07-20T05:30:04;1.90;;;1.80;;
55292;SDS011;41157;53.560;10.098;2023-07-20T05:32:32;4.70;;;2.03;;
55292;SDS011;41157;53.560;10.098;2023-07-20T05:34:59;2.00;;;1.80;;
55292;SDS011;41157;53.560;10.098;2023-07-20T05:37:28;1.87;;;1.70;;
55292;SDS011;41157;53.560;10.098;2023-07-20T05:39:55;1.90;;;1.80;;
55292;SDS011;41157;53.560;10.098;2023-07-20T05:42:23;1.90;;;1.80;;
55292;SDS011;41157;53.560;10.098;2023-07-20T05:44:50;2.90;;;1.87;;
55292;SDS011;41157;53.560;10.098;2023-07-20T05:47:18;2.03;;;1.80;;
55292;SDS011;41157;53.560;10.098;2023-07-20T05:49:45;2.47;;;1.83;;
55292;SDS011;41157;53.560;10.098;2023-07-20T05:52:13;2.67;;;2.23;;
55292;SDS011;41157;53.560;10.098;2023-07-20T05:54:42;3.03;;;1.90;;
55292;SDS011;41157;53.560;10.098;2023-07-20T05:57:09;4.47;;;2.27;;
55292;SDS011;41157;53.560;10.098;2023-07-20T05:59:36;2.33;;;2.13;;
55292;SDS011;41157;53.560;10.098;2023-07-20T06:02:05;1.90;;;1.70;;
55292;SDS011;41157;53.560;10.098;2023-07-20T06:04:33;6.83;;;2.33;;
55292;SDS011;41157;53.560;10.098;2023-07-20T06:07:00;2.03;;;1.80;;
55292;SDS011;41157;53.560;10.098;2023-07-20T06:09:27;4.33;;;2.20;;
55292;SDS011;41157;53.560;10.098;2023-07-20T06:11:56;2.37;;;2.10;;
55292;SDS011;41157;53.560;10.098;2023-07-20T06:14:23;1.80;;;1.60;;
55292;SDS011;41157;53.560;10.098;2023-07-20T06:16:53;4.03;;;1.80;;
55292;SDS011;41157;53.560;10.098;2023-07-20T06:19:20;4.17;;;1.90;;
55292;SDS011;41157;53.560;10.098;2023-07-20T06:21:48;4.00;;;2.20;;
55292;SDS011;41157;53.560;10.098;2023-07-20T06:24:15;3.03;;;1.97;;
55292;SDS011;41157;53.560;10.098;2023-07-20T06:26:42;4.83;;;2.00;;
55292;SDS011;41157;53.560;10.098;2023-07-20T06:29:11;2.67;;;1.73;;
55292;SDS011;41157;53.560;10.098;2023-07-20T06:31:38;1.43;;;1.33;;
55292;SDS011;41157;53.560;10.098;2023-07-20T06:34:05;1.60;;;1.40;;
55292;SDS011;41157;53.560;10.098;2023-07-20T06:36:32;1.90;;;1.40;;
55292;SDS011;41157;53.560;10.098;2023-07-20T06:38:59;3.72;;;1.50;;
55292;SDS011;41157;53.560;10.098;2023-07-20T06:41:27;1.80;;;1.40;;
55292;SDS011;41157;53.560;10.098;2023-07-20T06:43:54;4.00;;;1.30;;
55292;SDS011;41157;53.560;10.098;2023-07-20T06:46:24;1.33;;;1.23;;
55292;SDS011;41157;53.560;10.098;2023-07-20T06:48:51;3.08;;;1.50;;
55292;SDS011;41157;53.560;10.098;2023-07-20T06:51:18;1.40;;;1.30;;
55292;SDS011;41157;53.560;10.098;2023-07-20T06:53:45;2.72;;;1.38;;
55292;SDS011;41157;53.560;10.098;2023-07-20T06:56:13;1.25;;;1.15;;
55292;SDS011;41157;53.560;10.098;2023-07-20T06:58:40;1.10;;;1.00;;
55292;SDS011;41157;53.560;10.098;2023-07-20T07:01:07;1.75;;;1.02;;
55292;SDS011;41157;53.560;10.098;2023-07-20T07:03:35;3.90;;;1.20;;
55292;SDS011;41157;53.560;10.098;2023-07-20T07:06:02;2.58;;;1.20;;
55292;SDS011;41157;53.560;10.098;2023-07-20T07:08:29;2.85;;;1.08;;
55292;SDS011;41157;53.560;10.098;2023-07-20T07:10:57;1.38;;;1.08;;
55292;SDS011;41157;53.560;10.098;2023-07-20T07:13:24;1.42;;;1.10;;
55292;SDS011;41157;53.560;10.098;2023-07-20T07:15:51;3.55;;;1.25;;
55292;SDS011;41157;53.560;10.098;2023-07-20T07:18:18;3.03;;;1.10;;
55292;SDS011;41157;53.560;10.098;2023-07-20T07:20:55;1.48;;;0.85;;
55292;SDS011;41157;53.560;10.098;2023-07-20T07:23:23;4.20;;;1.25;;
55292;SDS011;41157;53.560;10.098;2023-07-20T07:25:50;3.40;;;1.23;;
55292;SDS011;41157;53.560;10.098;2023-07-20T07:28:17;3.38;;;1.30;;
55292;SDS011;41157;53.560;10.098;2023-07-20T07:30:44;2.60;;;1.25;;
55292;SDS011;41157;53.560;10.098;2023-07-20T07:33:11;1.05;;;0.98;;
55292;SDS011;41157;53.560;10.098;2023-07-20T07:35:38;3.53;;;1.40;;
55292;SDS011;41157;53.560;10.098;2023-07-20T07:38:07;1.00;;;1.00;;
55292;SDS011;41157;53.560;10.098;2023-07-20T07:40:34;2.97;;;1.13;;
55292;SDS011;41157;53.560;10.098;2023-07-20T07:43:01;6.85;;;1.33;;
55292;SDS011;41157;53.560;10.098;2023-07-20T07:45:28;4.22;;;1.38;;
55292;SDS011;41157;53.560;10.098;2023-07-20T07:47:55;1.45;;;1.10;;
55292;SDS011;41157;53.560;10.098;2023-07-20T07:50:22;2.90;;;1.38;;
55292;SDS011;41157;53.560;10.098;2023-07-20T07:52:50;2.78;;;1.25;;
55292;SDS011;41157;53.560;10.098;2023-07-20T07:55:18;5.97;;;1.55;;
55292;SDS011;41157;53.560;10.098;2023-07-20T07:57:45;4.30;;;1.73;;
55292;SDS011;41157;53.560;10.098;2023-07-20T08:00:13;2.33;;;1.27;;
55292;SDS011;41157;53.560;10.098;2023-07-20T08:02:40;3.15;;;1.70;;
55292;SDS011;41157;53.560;10.098;2023-07-20T08:05:08;5.95;;;1.88;;
55292;SDS011;41157;53.560;10.098;2023-07-20T08:07:35;1.65;;;1.40;;
55292;SDS011;41157;53.560;10.098;2023-07-20T08:10:02;4.50;;;1.73;;
55292;SDS011;41157;53.560;10.098;2023-07-20T08:12:31;5.22;;;1.88;;
55292;SDS011;41157;53.560;10.098;2023-07-20T08:14:58;6.97;;;1.77;;
55292;SDS011;41157;53.560;10.098;2023-07-20T08:17:25;3.17;;;1.70;;
55292;SDS011;41157;53.560;10.098;2023-07-20T08:19:52;3.22;;;2.00;;
55292;SDS011;41157;53.560;10.098;2023-07-20T08:22:19;3.90;;;2.00;;
55292;SDS011;41157;53.560;10.098;2023-07-20T08:24:46;5.35;;;2.20;;
55292;SDS011;41157;53.560;10.098;2023-07-20T08:27:13;2.42;;;1.67;;
55292;SDS011;41157;53.560;10.098;2023-07-20T08:29:42;6.13;;;2.00;;
55292;SDS011;41157;53.560;10.098;2023-07-20T08:32:09;4.00;;;2.20;;
55292;SDS011;41157;53.560;10.098;2023-07-20T08:34:36;3.97;;;1.92;;
55292;SDS011;41157;53.560;10.098;2023-07-20T08:37:04;4.13;;;1.83;;
55292;SDS011;41157;53.560;10.098;2023-07-20T08:39:31;4.47;;;1.83;;
55292;SDS011;41157;53.560;10.098;2023-07-20T08:42:00;4.78;;;2.10;;
55292;SDS011;41157;53.560;10.098;2023-07-20T08:44:29;5.78;;;2.20;;
55292;SDS011;41157;53.560;10.098;2023-07-20T08:46:57;3.70;;;2.10;;
55292;SDS011;41157;53.560;10.098;2023-07-20T08:49:25;4.57;;;1.90;;
55292;SDS011;41157;53.560;10.098;2023-07-20T08:51:53;5.13;;;1.83;;
55292;SDS011;41157;53.560;10.098;2023-07-20T08:54:20;2.88;;;1.63;;
55292;SDS011;41157;53.560;10.098;2023-07-20T08:56:47;3.50;;;1.85;;
55292;SDS011;41157;53.560;10.098;2023-07-20T08:59:14;3.40;;;1.65;;
55292;SDS011;41157;53.560;10.098;2023-07-20T09:01:44;8.15;;;1.70;;
55292;SDS011;41157;53.560;10.098;2023-07-20T09:04:12;6.65;;;1.85;;
55292;SDS011;41157;53.560;10.098;2023-07-20T09:06:41;3.08;;;1.67;;
55292;SDS011;41157;53.560;10.098;2023-07-20T09:09:08;4.60;;;1.73;;
55292;SDS011;41157;53.560;10.098;2023-07-20T09:11:36;4.13;;;1.92;;
55292;SDS011;41157;53.560;10.098;2023-07-20T09:14:03;7.97;;;2.40;;
55292;SDS011;41157;53.560;10.098;2023-07-20T09:16:31;7.05;;;2.42;;
55292;SDS011;41157;53.560;10.098;2023-07-20T09:18:58;4.13;;;1.90;;
55292;SDS011;41157;53.560;10.098;2023-07-20T09:21:32;4.72;;;2.15;;
55292;SDS011;41157;53.560;10.098;2023-07-20T09:23:59;3.83;;;1.70;;
55292;SDS011;41157;53.560;10.098;2023-07-20T09:26:26;5.80;;;2.53;;
55292;SDS011;41157;53.560;10.098;2023-07-20T09:28:53;3.55;;;1.75;;
55292;SDS011;41157;53.560;10.098;2023-07-20T09:31:21;4.68;;;2.00;;
55292;SDS011;41157;53.560;10.098;2023-07-20T09:33:49;9.15;;;2.10;;
55292;SDS011;41157;53.560;10.098;2023-07-20T09:36:18;6.68;;;2.00;;
55292;SDS011;41157;53.560;10.098;2023-07-20T09:38:47;3.67;;;1.50;;
55292;SDS011;41157;53.560;10.098;2023-07-20T09:41:14;3.88;;;1.70;;
55292;SDS011;41157;53.560;10.098;2023-07-20T09:43:42;2.45;;;1.40;;
55292;SDS011;41157;53.560;10.098;2023-07-20T09:46:09;2.05;;;1.30;;
55292;SDS011;41157;53.560;10.098;2023-07-20T09:48:36;3.55;;;1.40;;
55292;SDS011;41157;53.560;10.098;2023-07-20T09:51:04;2.20;;;1.02;;
55292;SDS011;41157;53.560;10.098;2023-07-20T09:53:32;2.53;;;1.27;;
55292;SDS011;41157;53.560;10.098;2023-07-20T09:56:00;6.88;;;1.63;;
55292;SDS011;41157;53.560;10.098;2023-07-20T09:58:29;3.78;;;1.10;;
55292;SDS011;41157;53.560;10.098;2023-07-20T10:01:00;1.85;;;1.35;;
55292;SDS011;41157;53.560;10.098;2023-07-20T10:03:30;3.80;;;0.90;;
55292;SDS011;41157;53.560;10.098;2023-07-20T10:05:58;1.65;;;1.05;;
55292;SDS011;41157;53.560;10.098;2023-07-20T10:08:27;4.25;;;1.15;;
55292;SDS011;41157;53.560;10.098;2023-07-20T10:10:56;2.63;;;1.20;;
55292;SDS011;41157;53.560;10.098;2023-07-20T10:13:26;2.38;;;1.00;;
55292;SDS011;41157;53.560;10.098;2023-07-20T10:15:54;1.10;;;0.93;;
55292;SDS011;41157;53.560;10.098;2023-07-20T10:18:22;2.40;;;0.88;;
55292;SDS011;41157;53.560;10.098;2023-07-20T10:20:54;4.53;;;1.30;;
55292;SDS011;41157;53.560;10.098;2023-07-20T10:23:21;5.03;;;1.05;;
55292;SDS011;41157;53.560;10.098;2023-07-20T10:25:48;2.17;;;1.10;;
55292;SDS011;41157;53.560;10.098;2023-07-20T10:28:16;3.03;;;1.00;;
55292;SDS011;41157;53.560;10.098;2023-07-20T10:30:45;6.45;;;1.25;;
55292;SDS011;41157;53.560;10.098;2023-07-20T10:33:13;4.75;;;1.30;;
55292;SDS011;41157;53.560;10.098;2023-07-20T10:35:52;0.93;;;0.73;;
55292;SDS011;41157;53.560;10.098;2023-07-20T10:38:20;3.95;;;1.20;;
55292;SDS011;41157;53.560;10.098;2023-07-20T10:41:04;2.05;;;1.05;;
55292;SDS011;41157;53.560;10.098;2023-07-20T10:43:42;3.03;;;1.05;;
55292;SDS011;41157;53.560;10.098;2023-07-20T10:46:11;1.75;;;1.25;;
55292;SDS011;41157;53.560;10.098;2023-07-20T10:51:21;1.58;;;1.08;;
55292;SDS011;41157;53.560;10.098;2023-07-20T10:53:48;1.73;;;1.00;;
55292;SDS011;41157;53.560;10.098;2023-07-20T10:56:19;1.35;;;0.88;;
55292;SDS011;41157;53.560;10.098;2023-07-20T10:58:46;3.55;;;1.17;;
55292;SDS011;41157;53.560;10.098;2023-07-20T11:01:16;2.53;;;0.90;;
55292;SDS011;41157;53.560;10.098;2023-07-20T11:03:43;2.45;;;1.00;;
55292;SDS011;41157;53.560;10.098;2023-07-20T11:06:31;2.78;;;1.00;;
55292;SDS011;41157;53.560;10.098;2023-07-20T11:09:04;4.03;;;1.33;;
55292;SDS011;41157;53.560;10.098;2023-07-20T11:11:32;5.68;;;1.23;;
55292;SDS011;41157;53.560;10.098;2023-07-20T11:14:00;5.10;;;1.00;;
55292;SDS011;41157;53.560;10.098;2023-07-20T11:16:33;1.00;;;0.80;;
55292;SDS011;41157;53.560;10.098;2023-07-20T11:19:01;3.67;;;1.05;;
55292;SDS011;41157;53.560;10.098;2023-07-20T11:21:28;1.33;;;0.75;;
55292;SDS011;41157;53.560;10.098;2023-07-20T11:23:56;7.00;;;1.42;;
55292;SDS011;41157;53.560;10.098;2023-07-20T11:26:23;8.18;;;1.05;;
55292;SDS011;41157;53.560;10.098;2023-07-20T11:28:50;2.22;;;1.10;;
55292;SDS011;41157;53.560;10.098;2023-07-20T11:31:17;1.80;;;0.80;;
55292;SDS011;41157;53.560;10.098;2023-07-20T11:33:46;1.83;;;0.77;;
55292;SDS011;41157;53.560;10.098;2023-07-20T11:36:13;3.13;;;0.70;;
55292;SDS011;41157;53.560;10.098;2023-07-20T11:38:43;0.60;;;0.60;;
55292;SDS011;41157;53.560;10.098;2023-07-20T11:41:10;1.20;;;0.60;;
55292;SDS011;41157;53.560;10.098;2023-07-20T11:43:38;2.08;;;0.77;;
55292;SDS011;41157;53.560;10.098;2023-07-20T11:46:05;1.88;;;0.90;;
55292;SDS011;41157;53.560;10.098;2023-07-20T11:48:32;0.93;;;0.70;;
55292;SDS011;41157;53.560;10.098;2023-07-20T11:51:01;1.67;;;0.75;;
55292;SDS011;41157;53.560;10.098;2023-07-20T11:53:28;1.65;;;0.70;;
55292;SDS011;41157;53.560;10.098;2023-07-20T11:55:55;0.82;;;0.60;;
55292;SDS011;41157;53.560;10.098;2023-07-20T11:58:22;2.88;;;1.02;;
55292;SDS011;41157;53.560;10.098;2023-07-20T12:00:49;3.85;;;0.90;;
55292;SDS011;41157;53.560;10.098;2023-07-20T12:03:17;1.77;;;0.90;;
55292;SDS011;41157;53.560;10.098;2023-07-20T12:05:44;1.38;;;0.80;;
55292;SDS011;41157;53.560;10.098;2023-07-20T12:08:13;0.95;;;0.70;;
55292;SDS011;41157;53.560;10.098;2023-07-20T12:10:40;1.02;;;0.77;;
55292;SDS011;41157;53.560;10.098;2023-07-20T12:13:09;1.23;;;0.77;;
55292;SDS011;41157;53.560;10.098;2023-07-20T12:15:37;2.88;;;0.90;;
55292;SDS011;41157;53.560;10.098;2023-07-20T12:18:04;1.80;;;0.75;;
55292;SDS011;41157;53.560;10.098;2023-07-20T12:20:32;1.15;;;0.75;;
55292;SDS011;41157;53.560;10.098;2023-07-20T12:23:00;1.58;;;0.73;;
55292;SDS011;41157;53.560;10.098;2023-07-20T12:25:40;1.38;;;0.63;;
55292;SDS011;41157;53.560;10.098;2023-07-20T12:28:08;1.55;;;0.60;;
55292;SDS011;41157;53.560;10.098;2023-07-20T12:30:36;2.33;;;1.10;;
55292;SDS011;41157;53.560;10.098;2023-07-20T12:33:03;4.00;;;1.10;;
55292;SDS011;41157;53.560;10.098;2023-07-20T12:35:30;2.17;;;0.90;;
55292;SDS011;41157;53.560;10.098;2023-07-20T12:37:57;2.53;;;1.10;;
55292;SDS011;41157;53.560;10.098;2023-07-20T12:40:24;2.17;;;0.85;;
55292;SDS011;41157;53.560;10.098;2023-07-20T12:42:53;2.20;;;0.93;;
55292;SDS011;41157;53.560;10.098;2023-07-20T12:45:20;2.20;;;1.00;;
55292;SDS011;41157;53.560;10.098;2023-07-20T12:47:47;4.13;;;1.05;;
55292;SDS011;41157;53.560;10.098;2023-07-20T12:50:14;4.18;;;1.30;;
55292;SDS011;41157;53.560;10.098;2023-07-20T12:52:41;1.90;;;1.10;;
55292;SDS011;41157;53.560;10.098;2023-07-20T12:55:09;5.38;;;1.15;;
55292;SDS011;41157;53.560;10.098;2023-07-20T12:57:37;2.25;;;1.20;;
55292;SDS011;41157;53.560;10.098;2023-07-20T13:00:06;6.07;;;1.15;;
55292;SDS011;41157;53.560;10.098;2023-07-20T13:02:34;2.88;;;0.90;;
55292;SDS011;41157;53.560;10.098;2023-07-20T13:05:01;3.38;;;1.10;;
55292;SDS011;41157;53.560;10.098;2023-07-20T13:07:29;7.43;;;1.55;;
55292;SDS011;41157;53.560;10.098;2023-07-20T13:09:57;3.22;;;1.17;;
55292;SDS011;41157;53.560;10.098;2023-07-20T13:12:25;3.13;;;1.10;;
55292;SDS011;41157;53.560;10.098;2023-07-20T13:14:52;1.60;;;1.05;;
55292;SDS011;41157;53.560;10.098;2023-07-20T13:17:20;1.48;;;0.75;;
55292;SDS011;41157;53.560;10.098;2023-07-20T13:19:47;1.65;;;0.98;;
55292;SDS011;41157;53.560;10.098;2023-07-20T13:22:14;2.47;;;1.15;;
55292;SDS011;41157;53.560;10.098;2023-07-20T13:24:43;3.80;;;1.30;;
55292;SDS011;41157;53.560;10.098;2023-07-20T13:27:11;2.88;;;0.98;;
55292;SDS011;41157;53.560;10.098;2023-07-20T13:29:38;7.30;;;1.65;;
55292;SDS011;41157;53.560;10.098;2023-07-20T13:32:05;5.15;;;1.42;;
55292;SDS011;41157;53.560;10.098;2023-07-20T13:34:34;1.63;;;0.70;;
55292;SDS011;41157;53.560;10.098;2023-07-20T13:37:01;0.60;;;0.60;;
55292;SDS011;41157;53.560;10.098;2023-07-20T13:39:28;1.38;;;0.70;;
55292;SDS011;41157;53.560;10.098;2023-07-20T13:41:55;1.92;;;0.70;;
55292;SDS011;41157;53.560;10.098;2023-07-20T13:44:22;1.25;;;0.60;;
55292;SDS011;41157;53.560;10.098;2023-07-20T13:46:49;2.25;;;0.93;;
55292;SDS011;41157;53.560;10.098;2023-07-20T13:49:16;0.85;;;0.60;;
55292;SDS011;41157;53.560;10.098;2023-07-20T13:51:45;2.08;;;0.93;;
55292;SDS011;41157;53.560;10.098;2023-07-20T13:54:12;4.78;;;1.02;;
55292;SDS011;41157;53.560;10.098;2023-07-20T13:56:39;1.52;;;0.85;;
55292;SDS011;41157;53.560;10.098;2023-07-20T13:59:06;1.83;;;0.90;;
55292;SDS011;41157;53.560;10.098;2023-07-20T14:01:33;1.13;;;0.80;;
55292;SDS011;41157;53.560;10.098;2023-07-20T14:04:00;3.65;;;0.60;;
55292;SDS011;41157;53.560;10.098;2023-07-20T14:06:29;1.83;;;0.82;;
55292;SDS011;41157;53.560;10.098;2023-07-20T14:08:58;2.90;;;1.10;;
55292;SDS011;41157;53.560;10.098;2023-07-20T14:11:25;2.10;;;0.90;;
55292;SDS011;41157;53.560;10.098;2023-07-20T14:13:53;0.60;;;0.57;;
55292;SDS011;41157;53.560;10.098;2023-07-20T14:16:20;2.88;;;0.77;;
55292;SDS011;41157;53.560;10.098;2023-07-20T14:18:47;0.88;;;0.57;;
55292;SDS011;41157;53.560;10.098;2023-07-20T14:21:14;3.22;;;0.73;;
55292;SDS011;41157;53.560;10.098;2023-07-20T14:23:41;0.73;;;0.73;;
55292;SDS011;41157;53.560;10.098;2023-07-20T14:26:10;2.35;;;0.88;;
55292;SDS011;41157;53.560;10.098;2023-07-20T14:28:37;1.45;;;0.73;;
55292;SDS011;41157;53.560;10.098;2023-07-20T14:31:04;1.98;;;0.73;;
55292;SDS011;41157;53.560;10.098;2023-07-20T14:33:31;2.00;;;0.70;;
55292;SDS011;41157;53.560;10.098;2023-07-20T14:35:58;2.13;;;1.02;;
55292;SDS011;41157;53.560;10.098;2023-07-20T14:38:26;1.15;;;0.85;;
55292;SDS011;41157;53.560;10.098;2023-07-20T14:40:53;2.47;;;0.98;;
55292;SDS011;41157;53.560;10.098;2023-07-20T14:43:22;2.60;;;1.00;;